Time;durP1;ratioP1;P1;durP2;ratioP2;P2;SDS_P1;SDS_P2;PMS_P1;PMS_P2;Temp;Humidity;BMP_temperature;BMP_pressure;BME280_temperature;BME280_humidity;BME280_pressure;Samples;Min_cycle;Max_cycle;Signal;HPM_P1;HPM_P2
2024/03/09 00:02:06;;;;;;;11.65;8.90;;;;;;;1.46;100.00;97778.56;15293417;19;20373;-83
2024/03/09 00:07:35;;;;;;;10.73;8.98;;;;;;;1.39;100.00;97769.38;15300615;19;20025;-82
2024/03/09 00:13:02;;;;;;;9.82;8.60;;;;;;;1.34;100.00;97768.91;15294635;19;20066;-82
2024/03/09 00:18:27;;;;;;;10.88;9.05;;;;;;;1.33;100.00;97769.88;15296832;19;20021;-82
2024/03/09 00:24:04;;;;;;;10.70;9.05;;;;;;;1.30;100.00;97775.41;15308089;19;20026;-81
2024/03/09 00:29:29;;;;;;;10.73;8.77;;;;;;;1.29;100.00;97763.09;15313978;19;20017;-82
2024/03/09 00:34:54;;;;;;;15.45;10.35;;;;;;;1.29;100.00;97760.44;15314988;19;20018;-83
2024/03/09 00:40:23;;;;;;;11.75;9.55;;;;;;;1.28;100.00;97750.78;15324793;19;20042;-82
2024/03/09 00:45:50;;;;;;;11.82;9.43;;;;;;;1.23;100.00;97756.47;15332385;19;20375;-83
2024/03/09 00:51:14;;;;;;;12.48;9.82;;;;;;;1.20;100.00;97746.06;15367197;19;20022;-82
2024/03/09 00:56:48;;;;;;;12.23;9.85;;;;;;;1.17;100.00;97736.53;15303541;19;20021;-83
2024/03/09 01:02:12;;;;;;;10.85;9.68;;;;;;;1.15;100.00;97733.16;15309207;19;20024;-81
2024/03/09 01:07:37;;;;;;;12.98;9.75;;;;;;;1.11;100.00;97715.81;15317360;19;20035;-81
2024/03/09 01:13:05;;;;;;;11.48;9.32;;;;;;;1.06;100.00;97718.78;15319635;19;20015;-81
2024/03/09 01:18:37;;;;;;;11.73;9.65;;;;;;;1.04;100.00;97696.00;15329986;19;20013;-81
2024/03/09 01:24:02;;;;;;;11.20;9.07;;;;;;;1.03;100.00;97699.63;15315431;19;20494;-82
2024/03/09 01:29:29;;;;;;;11.10;9.80;;;;;;;0.99;100.00;97688.41;15321291;19;20025;-82
2024/03/09 01:34:54;;;;;;;13.15;9.85;;;;;;;0.91;100.00;97686.34;15305011;19;20010;-81
2024/03/09 01:40:19;;;;;;;12.68;9.30;;;;;;;0.81;100.00;97671.28;15318321;19;20020;-81
2024/03/09 01:45:46;;;;;;;12.63;9.90;;;;;;;0.75;100.00;97678.75;15308018;19;20023;-82
2024/03/09 01:51:11;;;;;;;12.00;9.75;;;;;;;0.73;100.00;97669.22;15311356;19;20058;-82
2024/03/09 01:56:42;;;;;;;13.05;9.88;;;;;;;0.70;100.00;97659.72;15308659;19;20082;-83
2024/03/09 02:02:10;;;;;;;10.13;8.85;;;;;;;0.69;100.00;97644.75;15314908;19;20420;-82
2024/03/09 02:07:35;;;;;;;10.93;9.32;;;;;;;0.77;100.00;97638.84;15319490;19;20371;-84
2024/03/09 02:13:02;;;;;;;11.52;8.68;;;;;;;0.84;100.00;97632.13;15313487;19;20375;-81
2024/03/09 02:18:29;;;;;;;11.65;9.13;;;;;;;0.90;100.00;97618.38;15319264;19;20014;-81
2024/03/09 02:23:55;;;;;;;9.32;8.18;;;;;;;0.95;100.00;97619.81;15057847;19;5001503;-82
2024/03/09 02:29:23;;;;;;;9.35;8.35;;;;;;;0.99;100.00;97614.16;15315176;19;20015;-82
2024/03/09 02:34:48;;;;;;;11.60;8.93;;;;;;;1.05;100.00;97610.19;15311810;19;20098;-81
2024/03/09 02:40:15;;;;;;;10.30;8.73;;;;;;;1.05;100.00;97599.56;15318842;19;20409;-81
2024/03/09 02:45:42;;;;;;;9.88;8.25;;;;;;;1.11;100.00;97606.19;15314833;19;20018;-81
2024/03/09 02:51:08;;;;;;;10.57;8.75;;;;;;;1.14;100.00;97593.53;15309040;19;20093;-81
2024/03/09 02:56:40;;;;;;;10.35;8.63;;;;;;;1.14;100.00;97582.91;15313434;19;20355;-81
2024/03/09 03:03:45;;;;;;;11.80;8.75;;;;;;;1.12;100.00;97590.13;15314218;19;20572;-81
2024/03/09 03:07:52;;;;;;;11.20;9.38;;;;;;;1.10;100.00;97584.13;15312253;19;20038;-82
2024/03/09 03:13:18;;;;;;;11.15;9.40;;;;;;;1.00;100.00;97575.22;15308028;19;20018;-80
2024/03/09 03:18:46;;;;;;;10.45;9.30;;;;;;;0.85;100.00;97578.13;15311750;19;20025;-80
2024/03/09 03:24:13;;;;;;;10.73;9.52;;;;;;;0.72;100.00;97577.41;15312348;19;20022;-81
2024/03/09 03:29:37;;;;;;;12.95;10.32;;;;;;;0.71;100.00;97567.75;15319484;19;20011;-81
2024/03/09 03:35:05;;;;;;;12.02;9.50;;;;;;;0.63;100.00;97567.53;15343636;19;20014;-81
2024/03/09 03:40:32;;;;;;;9.88;8.88;;;;;;;0.37;100.00;97562.44;15315163;19;20018;-81
2024/03/09 03:45:57;;;;;;;10.60;9.15;;;;;;;0.15;100.00;97556.97;15301806;19;20029;-81
2024/03/09 03:51:25;;;;;;;11.55;9.93;;;;;;;0.06;100.00;97567.44;15305661;19;20026;-83
2024/03/09 03:56:49;;;;;;;12.93;10.32;;;;;;;0.01;100.00;97564.28;15298240;19;20014;-82
2024/03/09 04:02:14;;;;;;;12.70;10.40;;;;;;;-0.11;100.00;97566.88;15305695;19;20015;-82
2024/03/09 04:07:41;;;;;;;12.68;10.68;;;;;;;-0.17;100.00;97562.03;15312858;19;20015;-81
2024/03/09 04:13:06;;;;;;;12.52;11.23;;;;;;;-0.22;100.00;97557.09;15312632;19;20226;-83
2024/03/09 04:18:32;;;;;;;12.55;10.82;;;;;;;-0.30;100.00;97563.94;15315798;19;20018;-82
2024/03/09 04:24:01;;;;;;;12.20;10.90;;;;;;;-0.38;100.00;97561.84;15309058;19;20014;-83
2024/03/09 04:29:27;;;;;;;13.07;11.45;;;;;;;-0.51;100.00;97552.19;15308321;19;20025;-82
2024/03/09 04:34:51;;;;;;;15.10;11.55;;;;;;;-0.58;100.00;97553.56;15303867;19;20462;-82
2024/03/09 04:40:20;;;;;;;14.25;11.93;;;;;;;-0.67;100.00;97551.59;15316991;19;20038;-82
2024/03/09 04:45:45;;;;;;;13.93;12.13;;;;;;;-0.78;100.00;97545.31;15306822;19;20025;-81
2024/03/09 04:51:12;;;;;;;14.93;12.95;;;;;;;-0.85;100.00;97530.00;15313882;19;20026;-81
2024/03/09 04:56:47;;;;;;;16.15;13.35;;;;;;;-0.83;100.00;97525.44;15313356;19;20018;-81
2024/03/09 05:02:12;;;;;;;14.82;12.43;;;;;;;-0.86;100.00;97530.94;15309819;19;20015;-81
2024/03/09 05:07:36;;;;;;;13.05;11.50;;;;;;;-0.95;100.00;97525.38;15311384;19;20051;-81
2024/03/09 05:13:04;;;;;;;14.13;12.30;;;;;;;-1.03;100.00;97513.66;15301616;19;20023;-81
2024/03/09 05:18:30;;;;;;;14.27;12.10;;;;;;;-1.16;100.00;97514.53;15311550;19;20418;-81
2024/03/09 05:23:55;;;;;;;14.82;12.35;;;;;;;-1.28;100.00;97513.63;15305453;19;20017;-81
2024/03/09 05:29:15;;;;;;;15.02;13.07;;;;;;;-1.40;100.00;97511.88;15318738;19;20025;-82
2024/03/09 05:34:40;;;;;;;14.27;12.32;;;;;;;-1.49;100.00;97509.88;15300492;19;20014;-82
2024/03/09 05:40:09;;;;;;;15.95;13.35;;;;;;;-1.52;100.00;97512.72;15316727;19;20011;-82
2024/03/09 05:45:37;;;;;;;14.65;12.68;;;;;;;-1.57;100.00;97494.56;15304064;19;20014;-82
2024/03/09 05:51:05;;;;;;;14.60;12.70;;;;;;;-1.60;100.00;97500.91;15306980;19;20035;-82
2024/03/09 05:56:31;;;;;;;15.40;13.23;;;;;;;-1.61;100.00;97483.38;15322253;19;20495;-82
2024/03/09 06:01:58;;;;;;;15.35;13.13;;;;;;;-1.59;100.00;97489.38;15319587;19;20115;-82
2024/03/09 06:07:23;;;;;;;15.95;13.00;;;;;;;-1.58;100.00;97493.69;15311821;19;20039;-84
2024/03/09 06:12:49;;;;;;;14.95;12.70;;;;;;;-1.56;100.00;97490.97;15301284;19;20604;-84
2024/03/09 06:18:47;;;;;;;15.45;13.13;;;;;;;-1.56;100.00;97489.16;15318845;19;20369;-81
2024/03/09 06:24:13;;;;;;;16.83;14.20;;;;;;;-1.48;100.00;97495.72;15356844;19;20019;-81
2024/03/09 06:29:39;;;;;;;18.05;14.68;;;;;;;-1.46;100.00;97478.81;15297816;19;20018;-82
2024/03/09 06:35:09;;;;;;;17.50;13.90;;;;;;;-1.37;100.00;97477.31;15300278;19;20078;-83
2024/03/09 06:40:36;;;;;;;18.08;14.88;;;;;;;-1.22;100.00;97488.56;15307621;19;20022;-81
2024/03/09 06:46:01;;;;;;;17.02;13.68;;;;;;;-1.11;100.00;97493.06;15309591;19;20039;-83
2024/03/09 06:51:28;;;;;;;19.60;15.07;;;;;;;-1.01;100.00;97495.91;15300546;19;20035;-83
2024/03/09 06:56:57;;;;;;;18.63;15.20;;;;;;;-0.88;100.00;97495.84;15303207;19;20078;-83
2024/03/09 07:02:16;;;;;;;17.92;14.88;;;;;;;-0.80;100.00;97494.31;15303209;19;20018;-86
2024/03/09 07:07:44;;;;;;;19.90;15.57;;;;;;;-0.68;100.00;97489.06;15309678;19;20073;-83
2024/03/09 07:13:09;;;;;;;18.52;16.30;;;;;;;-0.51;100.00;97493.13;15298322;19;20010;-86
2024/03/09 07:18:37;;;;;;;21.15;17.27;;;;;;;-0.31;100.00;97475.75;15304901;19;20565;-85
2024/03/09 07:24:06;;;;;;;19.77;17.23;;;;;;;-0.01;100.00;97477.84;15311493;19;20031;-83
2024/03/09 07:29:31;;;;;;;20.25;16.63;;;;;;;0.37;100.00;97480.28;15312913;19;20042;-84
2024/03/09 07:34:55;;;;;;;18.67;15.77;;;;;;;0.61;100.00;97464.25;15307601;19;20089;-82
2024/03/09 07:40:25;;;;;;;14.90;13.00;;;;;;;0.95;100.00;97469.50;15302450;19;20068;-84
2024/03/09 07:45:50;;;;;;;14.27;12.77;;;;;;;1.23;100.00;97465.41;15302534;19;20007;-83
2024/03/09 07:51:14;;;;;;;12.98;10.70;;;;;;;1.57;100.00;97471.59;15304692;19;20433;-83
2024/03/09 07:56:42;;;;;;;11.98;9.68;;;;;;;1.85;100.00;97459.47;15303571;19;20469;-83
2024/03/09 08:02:07;;;;;;;10.45;9.07;;;;;;;2.11;100.00;97464.38;15306669;19;20010;-84
2024/03/09 08:07:32;;;;;;;9.70;8.70;;;;;;;2.34;100.00;97470.38;15309989;19;20012;-85
2024/03/09 08:12:59;;;;;;;9.35;8.45;;;;;;;2.51;100.00;97470.72;15304733;19;20638;-86
2024/03/09 08:18:24;;;;;;;9.40;8.23;;;;;;;2.70;100.00;97473.44;15308036;19;20532;-86
2024/03/09 08:23:52;;;;;;;9.13;8.00;;;;;;;2.87;100.00;97463.97;15306671;19;20015;-88
2024/03/09 08:29:21;;;;;;;8.57;7.68;;;;;;;3.06;100.00;97460.50;15313130;19;20014;-87
2024/03/09 08:34:46;;;;;;;8.82;7.93;;;;;;;3.29;100.00;97457.59;15303164;19;20015;-86
2024/03/09 08:40:10;;;;;;;8.05;7.25;;;;;;;3.47;100.00;97446.25;15300440;19;20014;-85
2024/03/09 08:45:42;;;;;;;8.95;7.30;;;;;;;3.68;100.00;97428.31;15296357;19;20473;-85
2024/03/09 08:51:07;;;;;;;9.05;6.93;;;;;;;3.96;100.00;97435.53;15305652;19;20086;-85
2024/03/09 08:56:34;;;;;;;7.38;6.60;;;;;;;4.24;100.00;97433.78;15305770;19;20505;-87
2024/03/09 09:02:02;;;;;;;7.38;6.68;;;;;;;4.43;100.00;97424.84;15324155;19;20039;-85
2024/03/09 09:07:33;;;;;;;7.10;6.40;;;;;;;4.63;100.00;97416.75;15349019;19;20021;-87
2024/03/09 09:12:58;;;;;;;7.32;6.63;;;;;;;4.71;100.00;97419.50;15367183;19;20011;-88
2024/03/09 09:18:25;;;;;;;9.25;6.43;;;;;;;4.78;100.00;97420.63;15343125;19;20006;-85
2024/03/09 09:23:50;;;;;;;7.65;6.45;;;;;;;4.84;100.00;97410.31;15331548;19;20481;-86
2024/03/09 09:29:15;;;;;;;6.93;6.20;;;;;;;5.04;100.00;97413.69;15341655;19;20428;-85
2024/03/09 09:34:42;;;;;;;7.50;6.55;;;;;;;5.23;100.00;97405.53;15309779;19;20037;-86
2024/03/09 09:40:13;;;;;;;7.18;6.40;;;;;;;5.55;100.00;97398.81;15331572;19;20474;-87
2024/03/09 09:45:40;;;;;;;6.97;5.93;;;;;;;5.89;100.00;97391.03;15317255;19;20006;-87
2024/03/09 09:51:12;;;;;;;6.63;5.80;;;;;;;6.26;100.00;97384.59;15323839;19;20288;-88
2024/03/09 09:56:36;;;;;;;6.68;5.93;;;;;;;6.46;100.00;97378.00;15312955;19;20113;-88
2024/03/09 10:02:03;;;;;;;6.57;5.88;;;;;;;6.59;100.00;97366.84;15301890;19;20014;-88
2024/03/09 10:07:30;;;;;;;8.45;6.00;;;;;;;6.76;100.00;97345.47;15314636;19;20010;-87
2024/03/09 10:13:12;;;;;;;5.93;5.28;;;;;;;7.06;100.00;97345.84;15306583;19;20378;-86
2024/03/09 10:18:40;;;;;;;5.78;5.25;;;;;;;7.33;100.00;97339.38;15318113;19;20039;-86
2024/03/09 10:24:11;;;;;;;6.65;5.70;;;;;;;7.63;100.00;97333.50;15309598;19;20082;-82
2024/03/09 10:29:36;;;;;;;5.55;4.95;;;;;;;7.79;100.00;97327.25;15315056;19;20473;-81
2024/03/09 10:35:03;;;;;;;5.97;5.20;;;;;;;7.95;100.00;97327.19;15302889;19;20022;-85
2024/03/09 10:40:31;;;;;;;5.85;5.28;;;;;;;8.07;100.00;97322.31;15305838;19;20022;-83
2024/03/09 10:45:57;;;;;;;5.63;4.95;;;;;;;8.22;100.00;97314.38;15296309;19;20090;-85
2024/03/09 10:51:28;;;;;;;5.10;4.60;;;;;;;8.39;100.00;97309.78;15307538;19;20146;-85
2024/03/09 10:57:11;;;;;;;5.13;4.63;;;;;;;8.59;100.00;97298.63;15304252;19;20035;-86
2024/03/09 11:02:38;;;;;;;6.15;4.63;;;;;;;8.73;100.00;97294.38;15300770;19;20267;-85
2024/03/09 11:08:04;;;;;;;5.43;4.93;;;;;;;8.82;100.00;97282.56;15304180;19;20014;-84
2024/03/09 11:13:31;;;;;;;5.40;4.90;;;;;;;8.93;100.00;97274.09;15304736;19;20089;-87
2024/03/09 11:19:01;;;;;;;5.70;4.97;;;;;;;9.10;100.00;97268.59;15297223;19;20039;-83
2024/03/09 11:24:30;;;;;;;5.73;5.13;;;;;;;9.28;100.00;97267.44;14781466;19;10000286;-84
2024/03/09 11:29:59;;;;;;;7.10;4.95;;;;;;;9.45;100.00;97258.22;15307366;19;20014;-83
2024/03/09 11:35:32;;;;;;;5.20;4.70;;;;;;;9.56;100.00;97246.16;15308934;19;20010;-83
2024/03/09 11:40:56;;;;;;;5.28;4.75;;;;;;;9.73;100.00;97233.38;15317015;19;20022;-86
2024/03/09 11:46:26;;;;;;;5.38;4.70;;;;;;;9.81;100.00;97233.31;15311358;19;20038;-86
2024/03/09 11:51:51;;;;;;;6.47;5.00;;;;;;;9.91;100.00;97233.00;15298985;19;20019;-84
2024/03/09 11:57:16;;;;;;;5.22;4.68;;;;;;;10.00;100.00;97218.41;15303991;19;20025;-83
2024/03/09 12:02:44;;;;;;;5.30;4.80;;;;;;;10.15;100.00;97213.03;15039998;19;5002252;-84
2024/03/09 12:08:11;;;;;;;5.30;4.80;;;;;;;10.30;100.00;97214.84;15307279;19;20038;-84
2024/03/09 12:13:36;;;;;;;5.18;4.07;;;;;;;10.46;100.00;97208.44;15299202;19;20106;-83
2024/03/09 12:19:08;;;;;;;4.78;4.28;;;;;;;10.66;100.00;97189.78;15051330;19;5002258;-83
2024/03/09 12:24:33;;;;;;;4.80;4.30;;;;;;;10.82;100.00;97186.00;15299483;19;20031;-83
2024/03/09 12:29:59;;;;;;;4.53;4.00;;;;;;;10.98;100.00;97182.22;15303783;19;20014;-86
2024/03/09 12:35:34;;;;;;;5.18;4.05;;;;;;;11.07;100.00;97178.34;15330388;19;20031;-86
2024/03/09 12:41:01;;;;;;;4.65;4.07;;;;;;;11.28;100.00;97173.94;15349021;19;20013;-86
2024/03/09 12:46:30;;;;;;;4.32;3.92;;;;;;;11.47;100.00;97171.56;15308127;19;20022;-87
2024/03/09 12:51:58;;;;;;;4.22;3.83;;;;;;;11.71;100.00;97165.69;15310768;19;20018;-88
2024/03/09 12:57:25;;;;;;;3.58;3.28;;;;;;;12.00;100.00;97166.47;15316747;19;20014;-85
2024/03/09 13:02:52;;;;;;;4.05;3.53;;;;;;;12.17;100.00;97172.34;15308545;19;20038;-84
2024/03/09 13:08:24;;;;;;;3.88;3.30;;;;;;;12.43;100.00;97151.88;15316245;19;20014;-84
2024/03/09 13:13:52;;;;;;;3.28;3.00;;;;;;;12.66;100.00;97163.31;15314860;19;20019;-83
2024/03/09 13:19:17;;;;;;;3.65;3.03;;;;;;;12.91;100.00;97153.56;15309475;19;20031;-83
2024/03/09 13:24:44;;;;;;;4.78;3.53;;;;;;;13.16;100.00;97144.84;15298453;19;20361;-82
2024/03/09 13:30:16;;;;;;;3.33;3.00;;;;;;;13.44;100.00;97142.94;15303738;19;20024;-82
2024/03/09 13:35:44;;;;;;;3.67;3.38;;;;;;;13.67;100.00;97142.50;15295977;19;20018;-82
2024/03/09 13:41:12;;;;;;;3.33;3.03;;;;;;;13.90;100.00;97141.97;15295553;19;20085;-81
2024/03/09 13:46:37;;;;;;;3.13;2.80;;;;;;;14.12;100.00;97141.66;15307146;19;20019;-81
2024/03/09 13:52:02;;;;;;;4.07;2.90;;;;;;;14.31;100.00;97127.22;15298398;19;20018;-82
2024/03/09 13:57:40;;;;;;;3.15;2.90;;;;;;;14.67;100.00;97124.06;15304987;19;20011;-84
2024/03/09 14:03:07;;;;;;;3.17;2.88;;;;;;;14.93;100.00;97117.63;15309020;19;20639;-80
2024/03/09 14:08:31;;;;;;;2.80;2.50;;;;;;;15.15;100.00;97133.50;15307404;19;20510;-82
2024/03/09 14:14:00;;;;;;;3.08;2.65;;;;;;;15.43;100.00;97119.47;15303322;19;20035;-84
2024/03/09 14:19:25;;;;;;;3.30;3.00;;;;;;;15.68;100.00;97114.00;15052992;19;5001608;-84
2024/03/09 14:24:51;;;;;;;3.25;2.95;;;;;;;15.95;100.00;97108.25;15302887;19;20021;-81
2024/03/09 14:30:26;;;;;;;3.33;3.00;;;;;;;16.15;100.00;97101.75;15045150;19;5002130;-81
2024/03/09 14:35:45;;;;;;;3.20;2.90;;;;;;;16.29;100.00;97103.19;15302624;19;20043;-82
2024/03/09 14:41:11;;;;;;;3.17;2.90;;;;;;;16.46;100.00;97097.94;15299966;19;20011;-81
2024/03/09 14:46:42;;;;;;;3.28;2.65;;;;;;;16.53;100.00;97089.69;15306244;19;20054;-81
2024/03/09 14:52:12;;;;;;;4.72;3.20;;;;;;;16.54;100.00;97091.34;15290599;19;20070;-82
2024/03/09 14:57:37;;;;;;;3.55;2.95;;;;;;;16.71;100.00;97082.50;15295513;19;20015;-81
2024/03/09 15:03:05;;;;;;;3.08;2.88;;;;;;;16.96;100.00;97076.06;15292344;19;20094;-81
2024/03/09 15:08:31;;;;;;;3.47;3.00;;;;;;;17.04;100.00;97071.13;15307859;19;20014;-82
2024/03/09 15:13:57;;;;;;;2.83;2.63;;;;;;;17.16;100.00;97070.28;15297421;19;20427;-81
2024/03/09 15:19:25;;;;;;;3.30;3.00;;;;;;;17.26;100.00;97062.34;15302138;19;20086;-82
2024/03/09 15:24:50;;;;;;;3.40;3.10;;;;;;;17.36;100.00;97062.56;15294403;19;20013;-82
2024/03/09 15:30:21;;;;;;;3.08;2.80;;;;;;;17.38;100.00;97067.78;15297026;19;20074;-82
2024/03/09 15:35:49;;;;;;;3.20;2.90;;;;;;;17.23;100.00;97062.81;15296428;19;20076;-81
2024/03/09 15:41:14;;;;;;;4.93;2.70;;;;;;;17.10;100.00;97055.75;15293579;19;20035;-81
2024/03/09 15:46:39;;;;;;;3.28;2.90;;;;;;;17.00;100.00;97052.75;15301532;19;20014;-82
2024/03/09 15:52:13;;;;;;;3.15;2.85;;;;;;;17.03;100.00;97052.28;15303564;19;20025;-81
2024/03/09 15:57:44;;;;;;;3.13;2.85;;;;;;;17.00;100.00;97045.44;15298857;19;20028;-82
2024/03/09 16:03:09;;;;;;;3.05;2.85;;;;;;;16.89;100.00;97038.88;15294806;19;20025;-81
2024/03/09 16:08:37;;;;;;;4.63;2.90;;;;;;;16.74;100.00;97033.09;15306474;19;20003;-81
2024/03/09 16:14:11;;;;;;;4.10;2.72;;;;;;;16.42;100.00;97030.69;15295285;19;20477;-82
2024/03/09 16:19:39;;;;;;;3.25;2.95;;;;;;;16.13;100.00;97028.59;15308148;19;20082;-82
2024/03/09 16:25:08;;;;;;;3.72;2.70;;;;;;;15.89;100.00;97027.69;15330888;19;20010;-81
2024/03/09 16:30:33;;;;;;;2.85;2.60;;;;;;;15.51;100.00;97031.50;15328521;19;20022;-81
2024/03/09 16:35:59;;;;;;;2.80;2.60;;;;;;;15.14;100.00;97036.91;15286386;19;20011;-81
2024/03/09 16:41:26;;;;;;;3.03;2.70;;;;;;;14.72;100.00;97046.50;15284754;19;20018;-81
2024/03/09 16:46:52;;;;;;;3.35;2.80;;;;;;;14.13;100.00;97051.25;15034115;19;5001471;-81
2024/03/09 16:52:16;;;;;;;3.30;2.97;;;;;;;13.54;100.00;97052.19;15295848;19;20426;-80
2024/03/09 16:57:44;;;;;;;3.75;3.22;;;;;;;12.74;100.00;97047.75;15295264;19;20370;-81
2024/03/09 17:03:09;;;;;;;3.28;2.97;;;;;;;12.15;100.00;97054.81;15287015;19;20100;-81
2024/03/09 17:08:36;;;;;;;3.65;3.30;;;;;;;11.60;100.00;97046.75;15298020;19;20370;-81
2024/03/09 17:14:05;;;;;;;5.07;3.42;;;;;;;11.17;100.00;97053.19;15288397;19;20006;-81
2024/03/09 17:19:36;;;;;;;4.25;3.83;;;;;;;10.77;100.00;97057.28;15286736;19;20014;-81
2024/03/09 17:25:01;;;;;;;4.40;4.00;;;;;;;10.46;100.00;97053.09;15296437;19;20021;-81
2024/03/09 17:30:29;;;;;;;4.75;4.35;;;;;;;10.11;100.00;97058.34;15305871;19;20018;-81
2024/03/09 17:35:53;;;;;;;5.07;4.57;;;;;;;9.85;100.00;97048.97;15314700;19;20032;-81
2024/03/09 17:41:18;;;;;;;5.35;4.85;;;;;;;9.61;100.00;97042.09;15310259;19;20038;-84
2024/03/09 17:46:45;;;;;;;5.57;4.90;;;;;;;9.41;100.00;97047.25;15309517;19;20010;-81
2024/03/09 17:52:10;;;;;;;6.95;4.82;;;;;;;9.22;100.00;97043.28;15309214;19;20031;-83
2024/03/09 17:57:42;;;;;;;7.68;5.47;;;;;;;9.04;100.00;97049.88;15318876;19;20014;-80
2024/03/09 18:03:14;;;;;;;6.25;5.65;;;;;;;8.88;100.00;97055.41;15308500;19;20022;-80
2024/03/09 18:08:38;;;;;;;7.30;5.88;;;;;;;8.75;100.00;97053.38;15329151;19;20014;-80
2024/03/09 18:14:03;;;;;;;5.90;5.40;;;;;;;8.62;100.00;97051.31;15316846;19;20030;-79
2024/03/09 18:19:31;;;;;;;6.25;5.40;;;;;;;8.51;100.00;97055.28;15327400;19;20069;-81
2024/03/09 18:24:57;;;;;;;6.05;5.45;;;;;;;8.35;100.00;97047.34;15319439;19;20023;-80
2024/03/09 18:30:24;;;;;;;7.13;6.07;;;;;;;8.23;100.00;97047.78;15324659;19;20014;-81
2024/03/09 18:35:53;;;;;;;6.20;5.60;;;;;;;8.14;100.00;97048.84;15317789;19;20018;-82
2024/03/09 18:41:18;;;;;;;6.72;5.90;;;;;;;8.07;100.00;97053.25;15321451;19;20018;-82
2024/03/09 18:46:46;;;;;;;6.10;5.50;;;;;;;7.94;100.00;97046.63;15323304;19;20019;-81
2024/03/09 18:52:14;;;;;;;6.10;5.53;;;;;;;7.86;100.00;97060.09;15322627;19;20612;-84
2024/03/09 18:57:46;;;;;;;6.65;5.95;;;;;;;7.74;100.00;97054.34;15305660;19;20892;-83
2024/03/09 19:03:42;;;;;;;6.50;5.72;;;;;;;7.55;100.00;97044.88;15316613;19;20018;-83
2024/03/09 19:09:12;;;;;;;6.25;5.65;;;;;;;7.44;100.00;97051.47;15307643;19;20010;-83
2024/03/09 19:20:33;;;;;;;5.95;5.35;;;;;;;7.31;100.00;97053.88;15302380;19;19919;-82
2024/03/09 19:26:29;;;;;;;6.78;5.68;;;;;;;7.25;100.00;97050.91;15317578;19;20019;-82
2024/03/09 19:31:59;;;;;;;6.00;5.40;;;;;;;7.19;100.00;97037.38;15315537;19;20010;-83
2024/03/09 19:37:32;;;;;;;7.72;5.43;;;;;;;7.11;100.00;97042.75;15312408;19;20362;-82
2024/03/09 19:43:00;;;;;;;5.70;5.20;;;;;;;7.05;100.00;97050.47;15302540;19;20018;-85
2024/03/09 19:48:25;;;;;;;5.95;5.38;;;;;;;6.97;100.00;97047.81;15306822;19;20822;-84
2024/03/09 19:53:51;;;;;;;5.78;5.20;;;;;;;6.91;100.00;97054.69;15351097;19;20002;-82
2024/03/09 19:59:21;;;;;;;7.35;5.32;;;;;;;6.88;100.00;97060.38;15312233;19;20034;-84
2024/03/09 20:04:46;;;;;;;5.93;5.20;;;;;;;6.83;100.00;97053.88;15297213;19;20034;-80
2024/03/09 20:10:14;;;;;;;7.90;5.60;;;;;;;6.77;100.00;97048.19;15296857;19;20357;-76
2024/03/09 20:15:41;;;;;;;6.05;5.45;;;;;;;6.75;100.00;97036.84;15282304;19;20087;-76
2024/03/09 20:21:06;;;;;;;6.13;5.32;;;;;;;6.72;100.00;97026.47;15284595;19;20011;-76
2024/03/09 20:26:31;;;;;;;6.80;5.90;;;;;;;6.70;100.00;97035.69;15287234;19;20019;-76
2024/03/09 20:31:59;;;;;;;5.90;5.30;;;;;;;6.65;100.00;97030.81;15282071;19;20014;-75
2024/03/09 20:37:24;;;;;;;7.80;6.10;;;;;;;6.59;100.00;97050.25;15287953;19;20021;-76
2024/03/09 20:42:48;;;;;;;7.50;5.90;;;;;;;6.53;100.00;97045.56;15287934;19;20362;-75
2024/03/09 20:48:17;;;;;;;6.07;5.47;;;;;;;6.45;100.00;97035.72;15282515;19;20671;-75
2024/03/09 20:53:46;;;;;;;6.95;6.18;;;;;;;6.41;100.00;97037.06;15288814;19;20377;-75
2024/03/09 20:59:11;;;;;;;6.35;5.75;;;;;;;6.36;100.00;97031.38;15295275;19;20813;-75
2024/03/09 21:04:38;;;;;;;6.82;6.13;;;;;;;6.36;100.00;97034.06;15295294;19;20023;-75
2024/03/09 21:10:03;;;;;;;7.10;6.40;;;;;;;6.32;100.00;97025.53;15304953;19;20031;-75
2024/03/09 21:15:30;;;;;;;6.88;5.55;;;;;;;6.27;100.00;97022.53;15298533;19;20023;-75
2024/03/09 21:21:00;;;;;;;6.43;5.70;;;;;;;6.20;100.00;97019.72;15299982;19;20026;-76
2024/03/09 21:26:25;;;;;;;7.43;5.67;;;;;;;6.10;100.00;97013.69;15304392;19;20022;-76
2024/03/09 21:31:51;;;;;;;6.68;5.97;;;;;;;5.97;100.00;97011.47;15295553;19;20025;-76
2024/03/09 21:37:19;;;;;;;6.60;5.70;;;;;;;5.86;100.00;97026.03;15299235;19;20018;-77
2024/03/09 21:42:45;;;;;;;6.97;6.28;;;;;;;5.75;100.00;97021.84;15305615;19;20019;-76
2024/03/09 21:48:09;;;;;;;6.78;6.05;;;;;;;5.67;100.00;97024.50;15304087;19;20388;-77
2024/03/09 21:53:37;;;;;;;7.72;6.57;;;;;;;5.60;100.00;97018.97;15298519;19;20047;-76
2024/03/09 21:59:02;;;;;;;7.30;6.50;;;;;;;5.52;100.00;97022.47;15301904;19;20039;-76
2024/03/09 22:04:27;;;;;;;7.75;6.75;;;;;;;5.45;100.00;97016.13;15294848;19;20039;-76
2024/03/09 22:09:54;;;;;;;7.40;6.70;;;;;;;5.40;100.00;97013.09;15293678;19;20923;-77
2024/03/09 22:15:19;;;;;;;8.57;7.53;;;;;;;5.37;100.00;97024.09;15296893;19;20120;-77
2024/03/09 22:20:44;;;;;;;8.20;7.40;;;;;;;5.35;100.00;97026.13;15293161;19;20563;-77
2024/03/09 22:26:13;;;;;;;8.25;7.45;;;;;;;5.32;100.00;97021.09;15296409;19;20477;-77
2024/03/09 22:31:37;;;;;;;9.23;7.38;;;;;;;5.28;100.00;97020.59;15290759;19;20018;-77
2024/03/09 22:37:03;;;;;;;8.30;7.50;;;;;;;5.24;100.00;97012.03;15296790;19;20018;-77
2024/03/09 22:42:33;;;;;;;8.20;7.30;;;;;;;5.25;100.00;97005.69;15295111;19;20014;-77
2024/03/09 22:47:58;;;;;;;11.00;8.07;;;;;;;5.24;100.00;96996.03;15301448;19;20090;-77
2024/03/09 22:53:22;;;;;;;8.40;7.50;;;;;;;5.23;100.00;96990.84;15302951;19;20078;-77
2024/03/09 22:58:57;;;;;;;9.43;7.28;;;;;;;5.21;100.00;96985.69;15350582;19;20026;-76
2024/03/09 23:04:22;;;;;;;9.88;7.57;;;;;;;5.19;100.00;96994.84;15300827;19;20018;-77
2024/03/09 23:09:48;;;;;;;8.63;7.72;;;;;;;5.15;100.00;96985.50;15288539;19;20015;-77
2024/03/09 23:15:16;;;;;;;10.63;8.32;;;;;;;5.09;100.00;96979.78;15282913;19;20557;-78
2024/03/09 23:20:43;;;;;;;10.23;9.15;;;;;;;5.05;100.00;96974.94;15290351;19;20026;-77
2024/03/09 23:26:08;;;;;;;10.65;8.95;;;;;;;4.95;100.00;96972.41;15290606;19;20018;-76
2024/03/09 23:31:35;;;;;;;9.77;8.80;;;;;;;4.72;100.00;96981.00;15289934;19;20018;-76
2024/03/09 23:37:00;;;;;;;11.05;9.45;;;;;;;4.45;100.00;96974.03;15291208;19;20014;-76
2024/03/09 23:42:24;;;;;;;11.07;9.98;;;;;;;4.31;100.00;96970.13;15294697;19;20010;-76
2024/03/09 23:47:52;;;;;;;12.25;9.70;;;;;;;4.18;100.00;96975.84;15287870;19;20086;-77
2024/03/09 23:53:17;;;;;;;10.93;9.68;;;;;;;4.17;100.00;96982.22;15289666;19;20019;-77
2024/03/09 23:58:49;;;;;;;12.52;11.23;;;;;;;4.19;100.00;96990.03;15292241;19;20029;-76
